| time (UTC) | temp F | wind direction | speed knots | gust knots | rain 1hr in | rain 24hr in | rain mn in | humidity % | barometer mb |
| 20260906125649 | 76 | 47 | 0.0 | 0.9 | 0.00 | 0.00 | 0.00 | 85 | 1014.2 |
| 20260906125147 | 77 | 51 | 0.0 | 0.0 | 0.00 | 0.00 | 0.00 | 83 | 1014.1 |
| 20260906124643 | 76 | 46 | 0.9 | 0.9 | 0.00 | 0.00 | 0.00 | 85 | 1014.0 |
| 20260906124138 | 75 | 38 | 0.9 | 0.9 | 0.00 | 0.00 | 0.00 | 86 | 1014.0 |
| 20260906123637 | 76 | 32 | 1.7 | 2.6 | 0.00 | 0.00 | 0.00 | 86 | 1014.0 |
| 20260906123133 | 75 | 102 | 0.0 | 0.0 | 0.00 | 0.00 | 0.00 | 88 | 1014.0 |
| 20260906122632 | 75 | 116 | 0.0 | 0.0 | 0.00 | 0.00 | 0.00 | 89 | 1014.1 |
| 20260906122127 | 75 | 31 | 1.7 | 2.6 | 0.00 | 0.00 | 0.00 | 89 | 1014.1 |
| 20260906121623 | 75 | 113 | 0.0 | 0.9 | 0.00 | 0.00 | 0.00 | 88 | 1014.1 |
| 20260906121120 | 75 | 140 | 1.7 | 1.7 | 0.00 | 0.00 | 0.00 | 88 | 1014.3 |
| 20260906120615 | 75 | 108 | 0.0 | 0.0 | 0.00 | 0.00 | 0.00 | 89 | 1014.0 |
| 20260906120113 | 74 | 153 | 0.0 | 0.0 | 0.00 | 0.00 | 0.00 | 91 | 1013.8 |
| 20260906115612 | 74 | 92 | 0.0 | 0.0 | 0.00 | 0.00 | 0.00 | 92 | 1013.9 |
| 20260906115108 | 73 | 60 | 0.0 | 0.0 | 0.00 | 0.00 | 0.00 | 92 | 1013.9 |
| 20260906114607 | 73 | 46 | 0.0 | 0.9 | 0.00 | 0.00 | 0.00 | 93 | 1013.7 |
| 20260906114103 | 73 | 85 | 0.0 | 0.0 | 0.00 | 0.00 | 0.00 | 93 | 1013.7 |
| 20260906113602 | 73 | 123 | 0.0 | 0.0 | 0.00 | 0.00 | 0.00 | 93 | 1013.7 |
| 20260906113057 | 73 | 70 | 0.0 | 0.0 | 0.00 | 0.00 | 0.00 | 93 | 1013.7 |
| 20260906112557 | 73 | 22 | 0.0 | 0.0 | 0.00 | 0.00 | 0.00 | 94 | 1013.6 |
| 20260906112054 | 73 | 71 | 0.9 | 0.9 | 0.00 | 0.00 | 0.00 | 94 | 1013.4 |
| 20260906111553 | 73 | 132 | 0.0 | 0.0 | 0.00 | 0.00 | 0.00 | 95 | 1013.6 |
| 20260906111049 | 73 | 5 | 0.0 | 0.0 | 0.00 | 0.00 | 0.00 | 95 | 1013.3 |
| 20260906110548 | 73 | 46 | 0.9 | 1.7 | 0.00 | 0.00 | 0.00 | 95 | 1013.2 |
| 20260906110048 | 73 | 11 | 0.9 | 1.7 | 0.00 | 0.00 | 0.00 | 95 | 1013.3 |
| 20260906105543 | 73 | 89 | 0.0 | 0.0 | 0.00 | 0.00 | 0.00 | 95 | 1013.3 |
| 20260906105039 | 73 | 54 | 0.0 | 0.9 | 0.00 | 0.00 | 0.00 | 94 | 1013.3 |
| 20260906104537 | 73 | 9 | 2.6 | 2.6 | 0.00 | 0.00 | 0.00 | 94 | 1013.1 |
| 20260906104038 | 73 | 59 | 0.0 | 0.0 | 0.00 | 0.00 | 0.00 | 94 | 1013.1 |
| 20260906103536 | 73 | 30 | 0.0 | 0.0 | 0.00 | 0.00 | 0.00 | 94 | 1013.0 |
| 20260906103032 | 73 | 9 | 0.9 | 1.7 | 0.00 | 0.00 | 0.00 | 94 | 1013.0 |
| 20260906102531 | 73 | 85 | 0.0 | 0.9 | 0.00 | 0.00 | 0.00 | 94 | 1013.1 |
| 20260906102027 | 73 | 85 | 0.0 | 0.0 | 0.00 | 0.00 | 0.00 | 94 | 1013.1 |
| 20260906101527 | 73 | 62 | 0.0 | 0.0 | 0.00 | 0.00 | 0.00 | 94 | 1012.8 |
| 20260906101022 | 73 | 144 | 0.0 | 0.0 | 0.00 | 0.00 | 0.00 | 94 | 1012.9 |
| 20260906100517 | 73 | 206 | 0.0 | 0.9 | 0.00 | 0.00 | 0.00 | 94 | 1012.8 |
| 20260906100012 | 73 | 134 | 0.9 | 0.9 | 0.00 | 0.00 | 0.00 | 94 | 1012.7 |
| 20260906095507 | 73 | 140 | 0.0 | 0.9 | 0.00 | 0.00 | 0.00 | 94 | 1012.5 |
| 20260906095002 | 73 | 145 | 0.9 | 0.9 | 0.00 | 0.00 | 0.00 | 94 | 1012.6 |
| 20260906094501 | 73 | 149 | 0.0 | 0.0 | 0.00 | 0.00 | 0.00 | 94 | 1012.4 |
| 20260906093957 | 73 | 77 | 0.0 | 0.0 | 0.00 | 0.00 | 0.00 | 94 | 1012.3 |
| 20260906093454 | 73 | 43 | 1.7 | 2.6 | 0.00 | 0.00 | 0.00 | 94 | 1012.2 |
| 20260906092954 | 73 | 41 | 1.7 | 1.7 | 0.00 | 0.00 | 0.00 | 94 | 1012.3 |
| 20260906092453 | 73 | 126 | 0.0 | 0.0 | 0.00 | 0.00 | 0.00 | 95 | 1012.0 |
| 20260906091948 | 73 | 77 | 0.0 | 0.0 | 0.00 | 0.00 | 0.00 | 95 | 1012.2 |
| 20260906091444 | 73 | 10 | 0.0 | 0.9 | 0.00 | 0.00 | 0.00 | 95 | 1012.1 |
| 20260906090941 | 73 | 16 | 0.0 | 0.9 | 0.00 | 0.00 | 0.00 | 96 | 1012.2 |
| 20260906090436 | 73 | 62 | 0.0 | 0.0 | 0.00 | 0.00 | 0.00 | 96 | 1012.1 |
| 20260906085930 | 73 | 50 | 0.0 | 0.0 | 0.00 | 0.00 | 0.00 | 96 | 1012.0 |
| 20260906085429 | 73 | 132 | 0.0 | 0.0 | 0.00 | 0.00 | 0.00 | 96 | 1012.0 |
| 20260906084928 | 73 | 136 | 0.0 | 0.0 | 0.00 | 0.00 | 0.00 | 96 | 1011.8 |
| 20260906084423 | 73 | 31 | 1.7 | 1.7 | 0.00 | 0.00 | 0.00 | 96 | 1011.9 |
| 20260906083922 | 73 | 3 | 1.7 | 2.6 | 0.00 | 0.00 | 0.00 | 96 | 1011.9 |
| 20260906083418 | 73 | 6 | 1.7 | 1.7 | 0.00 | 0.00 | 0.00 | 96 | 1011.9 |
| 20260906082917 | 73 | 24 | 0.9 | 1.7 | 0.00 | 0.00 | 0.00 | 96 | 1012.1 |
| 20260906082413 | 73 | 269 | 0.0 | 0.0 | 0.00 | 0.00 | 0.00 | 96 | 1011.8 |
| 20260906081909 | 72 | 11 | 0.0 | 0.0 | 0.00 | 0.00 | 0.00 | 97 | 1011.9 |
| 20260906081404 | 72 | 33 | 0.0 | 0.9 | 0.00 | 0.00 | 0.00 | 97 | 1011.8 |
| 20260906080900 | 72 | 79 | 0.0 | 0.0 | 0.00 | 0.00 | 0.00 | 97 | 1011.9 |
| 20260906080356 | 72 | 53 | 0.0 | 0.0 | 0.00 | 0.00 | 0.00 | 97 | 1011.8 |
| 20260906075855 | 72 | 27 | 0.0 | 0.0 | 0.00 | 0.00 | 0.00 | 97 | 1011.8 |
| 20260906075350 | 71 | 66 | 0.0 | 0.0 | 0.00 | 0.00 | 0.00 | 97 | 1011.6 |
| 20260906074846 | 71 | 175 | 0.0 | 0.0 | 0.00 | 0.00 | 0.00 | 97 | 1011.5 |
| 20260906074345 | 71 | 175 | 0.0 | 0.0 | 0.00 | 0.00 | 0.00 | 97 | 1011.4 |
| 20260906073844 | 71 | 176 | 0.0 | 0.0 | 0.00 | 0.00 | 0.00 | 97 | 1011.4 |
| 20260906073339 | 71 | 176 | 0.0 | 0.0 | 0.00 | 0.00 | 0.00 | 97 | 1011.2 |
| 20260906072836 | 71 | 176 | 0.0 | 0.0 | 0.00 | 0.00 | 0.00 | 97 | 1011.3 |
| 20260906072332 | 71 | 175 | 0.0 | 0.0 | 0.00 | 0.00 | 0.00 | 97 | 1011.3 |
| 20260906071827 | 71 | 175 | 0.0 | 0.0 | 0.00 | 0.00 | 0.00 | 97 | 1011.2 |
| 20260906071328 | 71 | 175 | 0.0 | 0.0 | 0.00 | 0.00 | 0.00 | 97 | 1011.5 |
| 20260906070824 | 71 | 175 | 0.0 | 0.0 | 0.00 | 0.00 | 0.00 | 97 | 1011.5 |
| 20260906070320 | 71 | 176 | 0.0 | 0.0 | 0.00 | 0.00 | 0.00 | 97 | 1011.5 |
| 20260906065820 | 72 | 176 | 0.0 | 0.0 | 0.00 | 0.00 | 0.00 | 97 | 1011.6 |
| 20260906065315 | 72 | 175 | 0.0 | 0.0 | 0.00 | 0.00 | 0.00 | 97 | 1011.5 |
| 20260906064810 | 72 | 175 | 0.0 | 0.0 | 0.00 | 0.00 | 0.00 | 97 | 1011.6 |
| 20260906064307 | 72 | 175 | 0.0 | 0.0 | 0.00 | 0.00 | 0.00 | 97 | 1011.5 |
| 20260906063801 | 72 | 175 | 0.0 | 0.0 | 0.00 | 0.00 | 0.00 | 97 | 1011.5 |
| 20260906063256 | 72 | 175 | 0.0 | 0.0 | 0.00 | 0.00 | 0.00 | 97 | 1011.7 |
| 20260906062751 | 72 | 175 | 0.0 | 0.0 | 0.00 | 0.00 | 0.00 | 97 | 1011.8 |
| 20260906062250 | 72 | 175 | 0.0 | 0.0 | 0.00 | 0.00 | 0.00 | 96 | 1011.7 |
| 20260906061746 | 72 | 175 | 0.0 | 0.0 | 0.00 | 0.00 | 0.00 | 96 | 1011.6 |
| 20260906061243 | 72 | 175 | 0.0 | 0.0 | 0.00 | 0.00 | 0.00 | 96 | 1011.6 |
| 20260906060737 | 72 | 175 | 0.0 | 0.0 | 0.00 | 0.00 | 0.00 | 96 | 1011.6 |
| 20260906060235 | 72 | 175 | 0.0 | 0.0 | 0.00 | 0.00 | 0.00 | 96 | 1011.8 |
| 20260906055730 | 72 | 175 | 0.0 | 0.0 | 0.00 | 0.00 | 0.00 | 96 | 1012.0 |
| 20260906055225 | 72 | 175 | 0.0 | 0.0 | 0.00 | 0.00 | 0.00 | 96 | 1011.9 |
| 20260906054721 | 73 | 175 | 0.0 | 0.0 | 0.00 | 0.00 | 0.00 | 96 | 1012.0 |
| 20260906054216 | 73 | 176 | 0.0 | 0.0 | 0.00 | 0.00 | 0.00 | 96 | 1012.4 |
| 20260906053713 | 73 | 177 | 0.0 | 0.0 | 0.00 | 0.00 | 0.00 | 96 | 1012.3 |
| 20260906053208 | 73 | 177 | 0.0 | 0.0 | 0.00 | 0.00 | 0.00 | 95 | 1012.2 |
| 20260906052703 | 73 | 177 | 0.0 | 0.0 | 0.00 | 0.00 | 0.00 | 95 | 1012.1 |
| 20260906052159 | 73 | 177 | 0.0 | 0.0 | 0.00 | 0.00 | 0.00 | 95 | 1012.2 |
| 20260906051656 | 73 | 177 | 0.0 | 0.0 | 0.00 | 0.00 | 0.00 | 95 | 1012.3 |
| 20260906051155 | 73 | 177 | 0.0 | 0.0 | 0.00 | 0.00 | 0.00 | 94 | 1012.3 |
| 20260906050651 | 73 | 177 | 0.0 | 0.0 | 0.00 | 0.00 | 0.00 | 94 | 1012.5 |
| 20260906050145 | 74 | 177 | 0.0 | 0.0 | 0.00 | 0.00 | 0.00 | 94 | 1012.4 |
| 20260906045644 | 74 | 177 | 0.0 | 0.0 | 0.00 | 0.00 | 0.00 | 94 | 1012.3 |
| 20260906045139 | 74 | 182 | 0.0 | 0.0 | 0.00 | 0.00 | 0.00 | 94 | 1012.5 |
| 20260906044635 | 74 | 253 | 0.0 | 0.0 | 0.00 | 0.00 | 0.00 | 93 | 1012.5 |
| 20260906044130 | 74 | 253 | 0.0 | 0.0 | 0.00 | 0.00 | 0.00 | 93 | 1012.6 |
| 20260906043627 | 74 | 253 | 0.0 | 0.0 | 0.00 | 0.00 | 0.00 | 93 | 1012.6 |
| 20260906043122 | 74 | 253 | 0.0 | 0.0 | 0.00 | 0.00 | 0.00 | 93 | 1012.5 |
| 20260906042621 | 74 | 253 | 0.0 | 0.0 | 0.00 | 0.00 | 0.00 | 93 | 1012.6 |
| 20260906042115 | 75 | 253 | 0.0 | 0.0 | 0.00 | 0.00 | 0.00 | 93 | 1012.5 |
| 20260906041612 | 75 | 253 | 0.0 | 0.0 | 0.00 | 0.00 | 0.00 | 92 | 1012.5 |
| 20260906041112 | 75 | 253 | 0.0 | 0.0 | 0.00 | 0.00 | 0.00 | 93 | 1012.7 |
| 20260906040607 | 75 | 253 | 0.0 | 0.0 | 0.00 | 0.00 | 0.00 | 93 | 1012.7 |
| 20260906035558 | 75 | 253 | 0.0 | 0.0 | 0.00 | 0.02 | 0.02 | 92 | 1012.6 |
| 20260906035054 | 75 | 61 | 0.0 | 0.0 | 0.00 | 0.02 | 0.02 | 91 | 1012.6 |
| 20260906034554 | 76 | 61 | 0.0 | 0.0 | 0.00 | 0.02 | 0.02 | 90 | 1012.8 |
| 20260906034048 | 76 | 95 | 0.0 | 0.0 | 0.00 | 0.02 | 0.02 | 89 | 1012.6 |
| 20260906033544 | 76 | 96 | 0.0 | 0.0 | 0.00 | 0.02 | 0.02 | 90 | 1012.7 |
| 20260906033039 | 76 | 180 | 0.0 | 0.0 | 0.00 | 0.02 | 0.02 | 90 | 1012.8 |
| 20260906032536 | 75 | 21 | 0.0 | 0.0 | 0.00 | 0.02 | 0.02 | 90 | 1012.6 |
| 20260906032030 | 75 | 30 | 0.0 | 0.0 | 0.00 | 0.02 | 0.02 | 90 | 1012.4 |
| 20260906031526 | 75 | 52 | 0.0 | 0.9 | 0.00 | 0.02 | 0.02 | 90 | 1012.5 |
| 20260906031021 | 75 | 213 | 0.9 | 0.9 | 0.00 | 0.02 | 0.02 | 90 | 1012.6 |
| 20260906030520 | 75 | 98 | 0.0 | 0.0 | 0.00 | 0.02 | 0.02 | 90 | 1012.5 |
| 20260906030020 | 75 | 23 | 0.9 | 0.9 | 0.00 | 0.02 | 0.02 | 90 | 1012.5 |
| 20260906025520 | 75 | 152 | 0.0 | 0.9 | 0.00 | 0.02 | 0.02 | 90 | 1012.5 |
| 20260906025018 | 75 | 123 | 0.0 | 0.9 | 0.00 | 0.02 | 0.02 | 90 | 1012.7 |
| 20260906024514 | 75 | 145 | 0.0 | 0.9 | 0.00 | 0.02 | 0.02 | 90 | 1012.5 |
| 20260906024014 | 75 | 34 | 1.7 | 1.7 | 0.00 | 0.02 | 0.02 | 90 | 1012.5 |
| 20260906023510 | 75 | 243 | 1.7 | 1.7 | 0.00 | 0.02 | 0.02 | 90 | 1012.7 |
| 20260906023004 | 75 | 1 | 0.9 | 0.9 | 0.00 | 0.02 | 0.02 | 90 | 1012.5 |
| 20260906022500 | 75 | 139 | 0.0 | 0.0 | 0.00 | 0.02 | 0.02 | 91 | 1012.4 |
| 20260906021955 | 75 | 73 | 0.0 | 0.0 | 0.00 | 0.02 | 0.02 | 91 | 1012.7 |
| 20260906021450 | 75 | 42 | 0.9 | 0.9 | 0.00 | 0.02 | 0.02 | 92 | 1012.5 |
| 20260906020944 | 75 | 39 | 0.0 | 0.0 | 0.00 | 0.02 | 0.02 | 93 | 1012.5 |
| 20260906020439 | 75 | 42 | 0.0 | 0.0 | 0.00 | 0.02 | 0.02 | 94 | 1012.5 |
| 20260906015933 | 74 | 43 | 0.0 | 0.0 | 0.00 | 0.02 | 0.02 | 94 | 1012.4 |
| 20260906015432 | 74 | 43 | 0.0 | 0.0 | 0.00 | 0.02 | 0.02 | 95 | 1012.4 |
| 20260906014932 | 75 | 43 | 0.0 | 0.0 | 0.00 | 0.02 | 0.02 | 95 | 1012.5 |
| 20260906014432 | 75 | 43 | 0.0 | 0.0 | 0.00 | 0.02 | 0.02 | 94 | 1012.6 |
| 20260906013928 | 75 | 43 | 0.0 | 0.0 | 0.00 | 0.02 | 0.02 | 94 | 1012.5 |
| 20260906013423 | 75 | 43 | 0.0 | 0.0 | 0.00 | 0.02 | 0.02 | 94 | 1012.4 |
| 20260906012919 | 75 | 43 | 0.0 | 0.0 | 0.00 | 0.02 | 0.02 | 94 | 1012.3 |
| 20260906012419 | 75 | 43 | 0.0 | 0.0 | 0.00 | 0.02 | 0.02 | 94 | 1012.1 |
| 20260906011918 | 75 | 43 | 0.0 | 0.0 | 0.00 | 0.02 | 0.02 | 94 | 1012.2 |
| 20260906011414 | 75 | 43 | 0.0 | 0.0 | 0.00 | 0.02 | 0.02 | 94 | 1012.3 |
| 20260906010909 | 75 | 43 | 0.0 | 0.0 | 0.00 | 0.02 | 0.02 | 94 | 1012.1 |
| 20260906010405 | 75 | 43 | 0.0 | 0.0 | 0.00 | 0.02 | 0.02 | 94 | 1012.2 |
| 20260906005900 | 75 | 43 | 0.0 | 0.0 | 0.00 | 0.02 | 0.02 | 93 | 1012.0 |
| 20260906005400 | 75 | 43 | 0.0 | 0.0 | 0.00 | 0.02 | 0.02 | 93 | 1012.1 |
| 20260906004858 | 75 | 43 | 0.0 | 0.0 | 0.00 | 0.02 | 0.02 | 93 | 1012.0 |
| 20260906004353 | 75 | 43 | 0.0 | 0.0 | 0.00 | 0.02 | 0.02 | 93 | 1011.8 |
| 20260906003848 | 75 | 43 | 0.0 | 0.0 | 0.00 | 0.02 | 0.02 | 93 | 1012.2 |
| 20260906003344 | 76 | 43 | 0.0 | 0.0 | 0.00 | 0.02 | 0.02 | 92 | 1012.1 |
| 20260906002839 | 76 | 43 | 0.0 | 0.0 | 0.00 | 0.02 | 0.02 | 92 | 1012.0 |
| 20260906002338 | 76 | 43 | 0.0 | 0.0 | 0.00 | 0.02 | 0.02 | 92 | 1012.0 |
| 20260906001834 | 76 | 43 | 0.0 | 0.0 | 0.00 | 0.02 | 0.02 | 92 | 1012.0 |
| 20260906001329 | 76 | 43 | 0.0 | 0.0 | 0.00 | 0.02 | 0.02 | 91 | 1011.9 |
| 20260906000824 | 76 | 43 | 0.0 | 0.0 | 0.00 | 0.02 | 0.02 | 91 | 1011.9 |
| 20260906000319 | 76 | 43 | 0.0 | 0.0 | 0.00 | 0.02 | 0.02 | 90 | 1011.7 |
| 20260905235819 | 77 | 43 | 0.0 | 0.0 | 0.00 | 0.02 | 0.02 | 90 | 1011.5 |
| 20260905235314 | 77 | 43 | 0.0 | 0.0 | 0.00 | 0.02 | 0.02 | 89 | 1011.5 |
| 20260905234809 | 77 | 43 | 0.0 | 0.0 | 0.00 | 0.02 | 0.02 | 89 | 1011.4 |
| 20260905234304 | 77 | 43 | 0.0 | 0.0 | 0.00 | 0.02 | 0.02 | 87 | 1011.3 |
| 20260905233800 | 77 | 59 | 0.9 | 0.9 | 0.00 | 0.02 | 0.02 | 88 | 1011.5 |
| 20260905233300 | 77 | 105 | 0.0 | 0.0 | 0.00 | 0.02 | 0.02 | 90 | 1011.4 |
| 20260905232759 | 77 | 105 | 0.0 | 0.0 | 0.00 | 0.02 | 0.02 | 90 | 1011.1 |
| 20260905232255 | 77 | 105 | 0.0 | 0.0 | 0.00 | 0.02 | 0.02 | 90 | 1011.1 |
| 20260905231751 | 78 | 105 | 0.0 | 0.0 | 0.00 | 0.02 | 0.02 | 89 | 1011.3 |
| 20260905231246 | 78 | 106 | 0.0 | 0.0 | 0.00 | 0.02 | 0.02 | 89 | 1011.0 |
| 20260905230742 | 78 | 38 | 0.0 | 0.0 | 0.00 | 0.02 | 0.02 | 87 | 1010.6 |
| 20260905230240 | 78 | 38 | 0.0 | 0.0 | 0.00 | 0.02 | 0.02 | 88 | 1010.6 |
| 20260905225739 | 78 | 35 | 0.0 | 0.0 | 0.00 | 0.02 | 0.02 | 89 | 1010.6 |
| 20260905225235 | 77 | 35 | 0.0 | 0.0 | 0.00 | 0.02 | 0.02 | 90 | 1010.6 |
| 20260905224733 | 77 | 35 | 0.0 | 0.0 | 0.00 | 0.02 | 0.02 | 91 | 1010.4 |
| 20260905224229 | 77 | 35 | 0.0 | 0.0 | 0.00 | 0.02 | 0.02 | 91 | 1010.4 |
| 20260905223726 | 77 | 35 | 0.0 | 0.0 | 0.00 | 0.02 | 0.02 | 89 | 1010.3 |
| 20260905223222 | 78 | 257 | 0.0 | 0.0 | 0.00 | 0.02 | 0.02 | 90 | 1010.3 |
| 20260905222718 | 77 | 259 | 0.0 | 0.0 | 0.00 | 0.02 | 0.02 | 90 | 1010.6 |
| 20260905222216 | 78 | 259 | 0.0 | 0.0 | 0.00 | 0.02 | 0.02 | 91 | 1010.7 |
| 20260905221713 | 77 | 259 | 0.0 | 0.0 | 0.00 | 0.02 | 0.02 | 90 | 1010.9 |
| 20260905221209 | 77 | 259 | 0.0 | 0.0 | 0.00 | 0.02 | 0.02 | 91 | 1011.1 |
| 20260905220705 | 77 | 259 | 0.0 | 0.0 | 0.00 | 0.02 | 0.02 | 92 | 1011.4 |
| 20260905220201 | 77 | 259 | 0.0 | 0.0 | 0.00 | 0.02 | 0.02 | 92 | 1011.2 |
| 20260905215700 | 77 | 259 | 0.0 | 0.0 | 0.00 | 0.02 | 0.02 | 92 | 1011.2 |
| 20260905215156 | 76 | 261 | 0.0 | 0.0 | 0.00 | 0.02 | 0.02 | 92 | 1010.9 |
| 20260905214652 | 76 | 136 | 0.0 | 0.0 | 0.00 | 0.02 | 0.02 | 92 | 1011.1 |
| 20260905214147 | 77 | 149 | 0.0 | 0.0 | 0.00 | 0.02 | 0.02 | 92 | 1010.8 |
| 20260905213642 | 76 | 92 | 0.0 | 0.0 | 0.00 | 0.02 | 0.02 | 92 | 1010.6 |
| 20260905213137 | 76 | 99 | 0.0 | 0.0 | 0.00 | 0.02 | 0.02 | 92 | 1010.6 |
| 20260905212633 | 77 | 99 | 0.0 | 0.0 | 0.00 | 0.02 | 0.02 | 92 | 1010.4 |
| 20260905212132 | 77 | 99 | 0.0 | 0.0 | 0.00 | 0.02 | 0.02 | 91 | 1010.6 |
| 20260905211626 | 77 | 99 | 0.0 | 0.0 | 0.00 | 0.02 | 0.02 | 91 | 1010.5 |
| 20260905211122 | 77 | 99 | 0.0 | 0.0 | 0.00 | 0.02 | 0.02 | 91 | 1010.5 |
| 20260905210619 | 77 | 99 | 0.0 | 0.0 | 0.00 | 0.02 | 0.02 | 90 | 1010.4 |
| 20260905210113 | 77 | 99 | 0.0 | 0.0 | 0.00 | 0.02 | 0.02 | 89 | 1010.5 |
| 20260905205612 | 77 | 100 | 0.0 | 0.0 | 0.00 | 0.02 | 0.02 | 89 | 1010.5 |
| 20260905205112 | 77 | 178 | 0.0 | 0.0 | 0.00 | 0.02 | 0.02 | 87 | 1010.4 |
| 20260905204606 | 76 | 185 | 0.0 | 0.9 | 0.00 | 0.02 | 0.02 | 87 | 1010.3 |
| 20260905204102 | 76 | 117 | 0.0 | 0.9 | 0.00 | 0.02 | 0.02 | 89 | 1010.6 |
| 20260905203601 | 76 | 98 | 0.0 | 0.9 | 0.00 | 0.02 | 0.02 | 90 | 1010.5 |
| 20260905203057 | 76 | 8 | 0.0 | 0.0 | 0.00 | 0.02 | 0.02 | 90 | 1010.5 |
| 20260905202552 | 76 | 98 | 0.0 | 0.0 | 0.00 | 0.02 | 0.02 | 90 | 1010.4 |
| 20260905202048 | 76 | 178 | 0.0 | 0.0 | 0.07 | 0.02 | 0.02 | 88 | 1010.5 |
| 20260905201543 | 77 | 22 | 0.9 | 0.9 | 0.14 | 0.02 | 0.02 | 88 | 1010.6 |
| 20260905201043 | 79 | 150 | 0.0 | 0.9 | 0.07 | 0.01 | 0.01 | 82 | 1010.8 |
| 20260905200538 | 80 | 46 | 0.9 | 0.9 | 0.00 | 0.00 | 0.00 | 78 | 1010.9 |
| 20260905200038 | 80 | 93 | 0.0 | 0.9 | 0.00 | 0.00 | 0.00 | 73 | 1011.4 |
| 20260905195532 | 81 | 112 | 0.9 | 1.7 | 0.00 | 0.00 | 0.00 | 72 | 1011.4 |
| 20260905195028 | 81 | 351 | 4.3 | 7.0 | 0.00 | 0.00 | 0.00 | 73 | 1011.5 |
| 20260905194527 | 81 | 51 | 0.0 | 0.9 | 0.00 | 0.00 | 0.00 | 73 | 1011.5 |
| 20260905194027 | 80 | 10 | 5.2 | 7.0 | 0.00 | 0.00 | 0.00 | 73 | 1011.4 |
| 20260905193522 | 81 | 27 | 2.6 | 5.2 | 0.00 | 0.00 | 0.00 | 73 | 1011.5 |
| 20260905193017 | 82 | 33 | 5.2 | 7.0 | 0.00 | 0.00 | 0.00 | 72 | 1011.8 |
| 20260905192512 | 84 | 49 | 7.8 | 12.2 | 0.00 | 0.00 | 0.00 | 68 | 1011.3 |
| 20260905192009 | 92 | 40 | 8.7 | 9.6 | 0.00 | 0.00 | 0.00 | 59 | 1011.3 |
| 20260905191507 | 96 | 52 | 0.0 | 0.0 | 0.00 | 0.00 | 0.00 | 43 | 1010.4 |
| 20260905191007 | 97 | 129 | 0.0 | 0.0 | 0.00 | 0.00 | 0.00 | 45 | 1010.1 |
| 20260905190504 | 97 | 34 | 0.0 | 0.0 | 0.00 | 0.00 | 0.00 | 45 | 1010.2 |
| 20260905190003 | 98 | 292 | 0.0 | 0.9 | 0.00 | 0.00 | 0.00 | 45 | 1010.0 |
| 20260905185458 | 98 | 31 | 0.0 | 0.0 | 0.00 | 0.00 | 0.00 | 44 | 1010.0 |
| 20260905184957 | 98 | 285 | 0.0 | 0.0 | 0.00 | 0.00 | 0.00 | 42 | 1009.7 |
| 20260905184452 | 99 | 132 | 0.9 | 0.9 | 0.00 | 0.00 | 0.00 | 41 | 1010.1 |
| 20260905183951 | 99 | 224 | 1.7 | 1.7 | 0.00 | 0.00 | 0.00 | 41 | 1009.9 |
| 20260905183450 | 98 | 62 | 0.0 | 0.0 | 0.00 | 0.00 | 0.00 | 44 | 1010.0 |
| 20260905182945 | 97 | 341 | 0.9 | 0.9 | 0.00 | 0.00 | 0.00 | 45 | 1010.1 |
| 20260905182445 | 98 | 195 | 0.9 | 0.9 | 0.00 | 0.00 | 0.00 | 42 | 1010.2 |
| 20260905181940 | 98 | 21 | 0.9 | 1.7 | 0.00 | 0.00 | 0.00 | 43 | 1010.3 |
| 20260905181441 | 99 | 124 | 0.9 | 0.9 | 0.00 | 0.00 | 0.00 | 42 | 1010.3 |
| 20260905180940 | 100 | 86 | 0.0 | 0.0 | 0.00 | 0.00 | 0.00 | 41 | 1010.5 |
| 20260905180434 | 102 | 27 | 0.0 | 0.0 | 0.00 | 0.00 | 0.00 | 42 | 1010.5 |
| 20260905175930 | 102 | 249 | 0.0 | 0.0 | 0.00 | 0.00 | 0.00 | 41 | 1010.9 |
| 20260905175424 | 101 | 208 | 0.0 | 0.0 | 0.00 | 0.00 | 0.00 | 43 | 1011.0 |
| 20260905174919 | 100 | 142 | 0.0 | 0.0 | 0.00 | 0.00 | 0.00 | 44 | 1011.2 |
| 20260905174415 | 98 | 74 | 0.0 | 0.9 | 0.00 | 0.00 | 0.00 | 45 | 1011.2 |
| 20260905173910 | 99 | 1 | 5.2 | 7.8 | 0.00 | 0.00 | 0.00 | 43 | 1011.5 |
| 20260905173407 | 100 | 39 | 0.9 | 0.9 | 0.00 | 0.00 | 0.00 | 44 | 1011.6 |
| 20260905172906 | 100 | 199 | 0.0 | 0.0 | 0.00 | 0.00 | 0.00 | 42 | 1011.7 |
| 20260905172404 | 101 | 261 | 1.7 | 2.6 | 0.00 | 0.00 | 0.00 | 41 | 1011.7 |
| 20260905171900 | 100 | 350 | 0.0 | 0.0 | 0.00 | 0.00 | 0.00 | 42 | 1011.9 |
| 20260905171357 | 100 | 351 | 1.7 | 2.6 | 0.00 | 0.00 | 0.00 | 41 | 1011.9 |
| 20260905170853 | 100 | 105 | 0.9 | 0.9 | 0.00 | 0.00 | 0.00 | 44 | 1012.0 |
| 20260905170349 | 99 | 284 | 0.9 | 0.9 | 0.00 | 0.00 | 0.00 | 44 | 1012.0 |
| 20260905165848 | 98 | 338 | 0.9 | 0.9 | 0.00 | 0.00 | 0.00 | 46 | 1012.2 |
| 20260905165344 | 98 | 177 | 1.7 | 1.7 | 0.00 | 0.00 | 0.00 | 47 | 1012.2 |
| 20260905164844 | 100 | 55 | 0.0 | 0.9 | 0.00 | 0.00 | 0.00 | 45 | 1012.3 |
| 20260905164338 | 100 | 194 | 0.9 | 0.9 | 0.00 | 0.00 | 0.00 | 44 | 1012.3 |
| 20260905163835 | 98 | 275 | 0.0 | 0.9 | 0.00 | 0.00 | 0.00 | 46 | 1012.4 |
| 20260905163331 | 98 | 347 | 0.9 | 0.9 | 0.00 | 0.00 | 0.00 | 47 | 1012.2 |
| 20260905162827 | 100 | 130 | 0.0 | 0.0 | 0.00 | 0.00 | 0.00 | 44 | 1012.5 |
| 20260905162326 | 96 | 61 | 0.9 | 1.7 | 0.00 | 0.00 | 0.00 | 47 | 1012.7 |
| 20260905161821 | 98 | 355 | 0.9 | 1.7 | 0.00 | 0.00 | 0.00 | 47 | 1012.4 |
| 20260905161320 | 98 | 177 | 0.0 | 0.0 | 0.00 | 0.00 | 0.00 | 49 | 1012.8 |
| 20260905160818 | 99 | 160 | 0.0 | 0.0 | 0.00 | 0.00 | 0.00 | 47 | 1013.0 |
| 20260905160313 | 98 | 65 | 0.0 | 0.0 | 0.00 | 0.00 | 0.00 | 47 | 1013.0 |
| 20260905155808 | 98 | 89 | 0.9 | 0.9 | 0.00 | 0.00 | 0.00 | 48 | 1012.9 |
| 20260905155307 | 98 | 245 | 0.9 | 0.9 | 0.00 | 0.00 | 0.00 | 47 | 1013.1 |
| 20260905154807 | 97 | 162 | 0.0 | 0.9 | 0.00 | 0.00 | 0.00 | 49 | 1013.2 |
| 20260905154302 | 98 | 31 | 0.0 | 0.9 | 0.00 | 0.00 | 0.00 | 49 | 1013.2 |
| 20260905153757 | 99 | 85 | 0.0 | 0.0 | 0.00 | 0.00 | 0.00 | 47 | 1013.2 |
| 20260905153253 | 99 | 128 | 0.0 | 0.0 | 0.00 | 0.00 | 0.00 | 49 | 1013.1 |
| 20260905152749 | 98 | 177 | 0.0 | 0.0 | 0.00 | 0.00 | 0.00 | 49 | 1013.3 |
| 20260905152248 | 98 | 303 | 1.7 | 2.6 | 0.00 | 0.00 | 0.00 | 49 | 1013.4 |
| 20260905151748 | 97 | 126 | 0.0 | 0.9 | 0.00 | 0.00 | 0.00 | 49 | 1013.5 |
| 20260905151244 | 96 | 128 | 0.0 | 0.9 | 0.00 | 0.00 | 0.00 | 51 | 1013.5 |
| 20260905150743 | 96 | 145 | 0.0 | 0.0 | 0.00 | 0.00 | 0.00 | 53 | 1013.3 |
| 20260905150243 | 96 | 176 | 0.0 | 0.0 | 0.00 | 0.00 | 0.00 | 52 | 1013.3 |
| 20260905145740 | 95 | 138 | 0.0 | 0.0 | 0.00 | 0.00 | 0.00 | 55 | 1013.3 |
| 20260905145236 | 96 | 116 | 0.0 | 0.0 | 0.00 | 0.00 | 0.00 | 53 | 1013.4 |
| 20260905144734 | 95 | 88 | 0.0 | 0.0 | 0.00 | 0.00 | 0.00 | 54 | 1013.5 |
| 20260905144230 | 94 | 118 | 0.0 | 0.9 | 0.00 | 0.00 | 0.00 | 54 | 1013.4 |
| 20260905143729 | 94 | 99 | 0.0 | 0.0 | 0.00 | 0.00 | 0.00 | 58 | 1013.5 |
| 20260905143229 | 93 | 19 | 0.9 | 0.9 | 0.00 | 0.00 | 0.00 | 56 | 1013.5 |
| 20260905142727 | 94 | 136 | 0.0 | 0.0 | 0.00 | 0.00 | 0.00 | 57 | 1013.5 |
| 20260905142222 | 94 | 131 | 0.0 | 0.0 | 0.00 | 0.00 | 0.00 | 58 | 1013.3 |
| 20260905141718 | 93 | 56 | 0.0 | 0.0 | 0.00 | 0.00 | 0.00 | 60 | 1013.2 |
| 20260905141214 | 92 | 128 | 0.0 | 0.0 | 0.00 | 0.00 | 0.00 | 60 | 1013.4 |
| 20260905140709 | 93 | 117 | 0.0 | 0.0 | 0.00 | 0.00 | 0.00 | 60 | 1013.3 |
| 20260905140209 | 91 | 94 | 0.9 | 0.9 | 0.00 | 0.00 | 0.00 | 63 | 1013.2 |
| 20260905135703 | 91 | 87 | 0.0 | 0.0 | 0.00 | 0.00 | 0.00 | 62 | 1013.1 |
| 20260905135200 | 91 | 126 | 0.0 | 0.0 | 0.00 | 0.00 | 0.00 | 63 | 1013.2 |
| 20260905134658 | 91 | 85 | 0.0 | 0.0 | 0.00 | 0.00 | 0.00 | 63 | 1013.4 |
| 20260905134158 | 90 | 129 | 0.0 | 0.0 | 0.00 | 0.00 | 0.00 | 67 | 1013.3 |
| 20260905133653 | 90 | 272 | 0.0 | 0.0 | 0.00 | 0.00 | 0.00 | 66 | 1013.1 |
| 20260905133154 | 90 | 110 | 0.0 | 0.0 | 0.00 | 0.00 | 0.00 | 69 | 1013.3 |
| 20260905132653 | 89 | 120 | 0.0 | 0.0 | 0.00 | 0.00 | 0.00 | 67 | 1013.4 |
| 20260905132148 | 89 | 118 | 0.0 | 0.0 | 0.00 | 0.00 | 0.00 | 69 | 1013.4 |
| 20260905131643 | 88 | 111 | 0.0 | 0.0 | 0.00 | 0.00 | 0.00 | 70 | 1013.4 |
| 20260905131138 | 87 | 107 | 0.0 | 0.0 | 0.00 | 0.00 | 0.00 | 71 | 1013.3 |
| 20260905130632 | 87 | 133 | 0.0 | 0.0 | 0.00 | 0.00 | 0.00 | 73 | 1013.3 |
| 20260905130133 | 86 | 109 | 0.0 | 0.9 | 0.00 | 0.00 | 0.00 | 73 | 1013.3 |